Main page
METAR-TAF:

METAR-TAF

Airports :

Mid-Way Regional Airport

Midlothian / Waxahachie, Texas, United States

latitude: 32-27-21N, longitude: 096-54-44W, elevation: 712 ft

Current weather observation

The report was made 19 minutes ago, at 19:15 UTC
Wind 17 mph from the South with gusts up to 23 mph
Temperature 91°F
Humidity 53%
Pressure 29.84 in. Hg
Visibility: 10 miles
Few clouds at a height of 4400 ft

METAR: KJWY 171915Z AUTO 17015G20KT 10SM FEW044 33/22 A2984 RMK AO2 T03340217 TSNO $

Time: 14:34 (19:34 UTC)


TAF: missing

Weather observations and forecasts of more than 4000 airports (METAR and TAF reports).

The available stations are represented by yellow and red dots on the map.

Hover mouse over dot to see the name of the station.

Then click to see weather observations and forecasts.

To change the map : click on the green buttons with a black cross to zoom in, on the green button with a dash to zoom out, or on the green arrows for adjacent maps.


METAR-TAF: